sensor_id;sensor_type;location;lat;lon;timestamp;temperature;humidity
48488;DHT22;34289;48.572;13.378;2022-10-16T00:01:13;12.60;99.90
48488;DHT22;34289;48.572;13.378;2022-10-16T00:03:41;12.30;99.90
48488;DHT22;34289;48.572;13.378;2022-10-16T00:06:19;12.30;99.90
48488;DHT22;34289;48.572;13.378;2022-10-16T00:08:45;12.40;99.90
48488;DHT22;34289;48.572;13.378;2022-10-16T00:11:14;12.20;99.90
48488;DHT22;34289;48.572;13.378;2022-10-16T00:13:41;12.40;99.90
48488;DHT22;34289;48.572;13.378;2022-10-16T00:16:08;12.40;99.90
48488;DHT22;34289;48.572;13.378;2022-10-16T00:18:34;12.20;99.90
48488;DHT22;34289;48.572;13.378;2022-10-16T00:21:22;12.30;99.90
48488;DHT22;34289;48.572;13.378;2022-10-16T00:23:59;13.00;99.90
48488;DHT22;34289;48.572;13.378;2022-10-16T00:26:26;12.20;99.90
48488;DHT22;34289;48.572;13.378;2022-10-16T00:28:52;12.20;99.90
48488;DHT22;34289;48.572;13.378;2022-10-16T00:31:20;12.20;99.90
48488;DHT22;34289;48.572;13.378;2022-10-16T00:33:46;13.40;99.90
48488;DHT22;34289;48.572;13.378;2022-10-16T00:36:14;13.60;99.90
48488;DHT22;34289;48.572;13.378;2022-10-16T00:38:40;12.10;99.90
48488;DHT22;34289;48.572;13.378;2022-10-16T00:41:09;12.10;99.90
48488;DHT22;34289;48.572;13.378;2022-10-16T00:43:46;12.30;99.90
48488;DHT22;34289;48.572;13.378;2022-10-16T00:49:03;12.40;99.90
48488;DHT22;34289;48.572;13.378;2022-10-16T00:51:41;12.40;99.90
48488;DHT22;34289;48.572;13.378;2022-10-16T00:54:17;12.40;99.90
48488;DHT22;34289;48.572;13.378;2022-10-16T00:56:46;12.40;99.90
48488;DHT22;34289;48.572;13.378;2022-10-16T00:59:18;12.90;99.90
48488;DHT22;34289;48.572;13.378;2022-10-16T01:01:44;12.40;99.90
48488;DHT22;34289;48.572;13.378;2022-10-16T01:04:10;13.10;99.90
48488;DHT22;34289;48.572;13.378;2022-10-16T01:06:47;13.80;99.90
48488;DHT22;34289;48.572;13.378;2022-10-16T01:09:21;12.30;99.90
48488;DHT22;34289;48.572;13.378;2022-10-16T01:14:56;12.30;99.90
48488;DHT22;34289;48.572;13.378;2022-10-16T01:17:41;12.30;99.90
48488;DHT22;34289;48.572;13.378;2022-10-16T01:20:22;12.20;99.90
48488;DHT22;34289;48.572;13.378;2022-10-16T01:23:04;12.20;99.90
48488;DHT22;34289;48.572;13.378;2022-10-16T01:28:15;12.20;99.90
48488;DHT22;34289;48.572;13.378;2022-10-16T01:30:43;12.20;99.90
48488;DHT22;34289;48.572;13.378;2022-10-16T01:33:19;12.80;99.90
48488;DHT22;34289;48.572;13.378;2022-10-16T01:35:53;12.20;99.90
48488;DHT22;34289;48.572;13.378;2022-10-16T01:38:37;12.30;99.90
48488;DHT22;34289;48.572;13.378;2022-10-16T01:41:12;12.00;99.90
48488;DHT22;34289;48.572;13.378;2022-10-16T01:43:54;12.00;99.90
48488;DHT22;34289;48.572;13.378;2022-10-16T01:46:22;12.00;99.90
48488;DHT22;34289;48.572;13.378;2022-10-16T01:48:49;12.00;99.90
48488;DHT22;34289;48.572;13.378;2022-10-16T01:51:17;12.00;99.90
48488;DHT22;34289;48.572;13.378;2022-10-16T01:53:48;12.00;99.90
48488;DHT22;34289;48.572;13.378;2022-10-16T01:56:16;12.00;99.90
48488;DHT22;34289;48.572;13.378;2022-10-16T01:58:47;11.90;99.90
48488;DHT22;34289;48.572;13.378;2022-10-16T02:01:15;12.30;99.90
48488;DHT22;34289;48.572;13.378;2022-10-16T02:03:44;11.90;99.90
48488;DHT22;34289;48.572;13.378;2022-10-16T02:06:11;11.90;99.90
48488;DHT22;34289;48.572;13.378;2022-10-16T02:08:37;13.40;99.90
48488;DHT22;34289;48.572;13.378;2022-10-16T02:11:06;11.90;99.90
48488;DHT22;34289;48.572;13.378;2022-10-16T02:13:48;12.00;99.90
48488;DHT22;34289;48.572;13.378;2022-10-16T02:16:15;13.00;99.90
48488;DHT22;34289;48.572;13.378;2022-10-16T02:18:42;11.80;99.90
48488;DHT22;34289;48.572;13.378;2022-10-16T02:21:44;11.80;99.90
48488;DHT22;34289;48.572;13.378;2022-10-16T02:27:24;11.80;99.90
48488;DHT22;34289;48.572;13.378;2022-10-16T02:30:14;11.80;99.90
48488;DHT22;34289;48.572;13.378;2022-10-16T02:32:43;11.80;99.90
48488;DHT22;34289;48.572;13.378;2022-10-16T02:35:10;12.70;99.90
48488;DHT22;34289;48.572;13.378;2022-10-16T02:37:36;11.80;99.90
48488;DHT22;34289;48.572;13.378;2022-10-16T02:40:04;13.40;99.90
48488;DHT22;34289;48.572;13.378;2022-10-16T02:42:39;11.80;99.90
48488;DHT22;34289;48.572;13.378;2022-10-16T02:45:06;12.90;99.90
48488;DHT22;34289;48.572;13.378;2022-10-16T02:47:32;11.70;99.90
48488;DHT22;34289;48.572;13.378;2022-10-16T02:49:57;12.40;99.90
48488;DHT22;34289;48.572;13.378;2022-10-16T02:52:23;11.70;99.90
48488;DHT22;34289;48.572;13.378;2022-10-16T02:54:49;12.00;99.90
48488;DHT22;34289;48.572;13.378;2022-10-16T02:57:15;11.70;99.90
48488;DHT22;34289;48.572;13.378;2022-10-16T02:59:40;12.00;99.90
48488;DHT22;34289;48.572;13.378;2022-10-16T03:02:06;12.30;99.90
48488;DHT22;34289;48.572;13.378;2022-10-16T03:04:32;11.70;99.90
48488;DHT22;34289;48.572;13.378;2022-10-16T03:06:58;12.10;99.90
48488;DHT22;34289;48.572;13.378;2022-10-16T03:09:23;11.70;99.90
48488;DHT22;34289;48.572;13.378;2022-10-16T03:11:49;11.60;99.90
48488;DHT22;34289;48.572;13.378;2022-10-16T03:14:15;11.60;99.90
48488;DHT22;34289;48.572;13.378;2022-10-16T03:16:40;11.60;99.90
48488;DHT22;34289;48.572;13.378;2022-10-16T03:19:07;11.70;99.90
48488;DHT22;34289;48.572;13.378;2022-10-16T03:21:32;13.30;99.90
48488;DHT22;34289;48.572;13.378;2022-10-16T03:23:58;11.70;99.90
48488;DHT22;34289;48.572;13.378;2022-10-16T03:26:23;11.50;99.90
48488;DHT22;34289;48.572;13.378;2022-10-16T03:28:49;12.70;99.90
48488;DHT22;34289;48.572;13.378;2022-10-16T03:31:15;11.50;99.90
48488;DHT22;34289;48.572;13.378;2022-10-16T03:33:40;12.70;99.90
48488;DHT22;34289;48.572;13.378;2022-10-16T03:36:06;12.00;99.90
48488;DHT22;34289;48.572;13.378;2022-10-16T03:38:32;11.50;99.90
48488;DHT22;34289;48.572;13.378;2022-10-16T03:40:58;11.50;99.90
48488;DHT22;34289;48.572;13.378;2022-10-16T03:43:23;11.60;99.90
48488;DHT22;34289;48.572;13.378;2022-10-16T03:45:50;11.60;99.90
48488;DHT22;34289;48.572;13.378;2022-10-16T03:48:17;11.70;99.90
48488;DHT22;34289;48.572;13.378;2022-10-16T03:50:43;11.70;99.90
48488;DHT22;34289;48.572;13.378;2022-10-16T03:53:08;11.60;99.90
48488;DHT22;34289;48.572;13.378;2022-10-16T03:55:34;12.10;99.90
48488;DHT22;34289;48.572;13.378;2022-10-16T03:58:00;11.60;99.90
48488;DHT22;34289;48.572;13.378;2022-10-16T04:00:26;12.40;99.90
48488;DHT22;34289;48.572;13.378;2022-10-16T04:02:52;12.70;99.90
48488;DHT22;34289;48.572;13.378;2022-10-16T04:05:17;11.70;99.90
48488;DHT22;34289;48.572;13.378;2022-10-16T04:07:43;11.70;99.90
48488;DHT22;34289;48.572;13.378;2022-10-16T04:10:09;12.50;99.90
48488;DHT22;34289;48.572;13.378;2022-10-16T04:12:34;11.80;99.90
48488;DHT22;34289;48.572;13.378;2022-10-16T04:15:00;12.90;99.90
48488;DHT22;34289;48.572;13.378;2022-10-16T04:17:26;11.60;99.90
48488;DHT22;34289;48.572;13.378;2022-10-16T04:19:51;11.60;99.90
48488;DHT22;34289;48.572;13.378;2022-10-16T04:22:17;11.60;99.90
48488;DHT22;34289;48.572;13.378;2022-10-16T04:24:43;11.60;99.90
48488;DHT22;34289;48.572;13.378;2022-10-16T04:27:08;11.60;99.90
48488;DHT22;34289;48.572;13.378;2022-10-16T04:29:34;11.60;99.90
48488;DHT22;34289;48.572;13.378;2022-10-16T04:31:59;11.70;99.90
48488;DHT22;34289;48.572;13.378;2022-10-16T04:34:25;11.70;99.90
48488;DHT22;34289;48.572;13.378;2022-10-16T04:36:51;11.60;99.90
48488;DHT22;34289;48.572;13.378;2022-10-16T04:39:17;11.50;99.90
48488;DHT22;34289;48.572;13.378;2022-10-16T04:41:42;12.50;99.90
48488;DHT22;34289;48.572;13.378;2022-10-16T04:44:08;12.40;99.90
48488;DHT22;34289;48.572;13.378;2022-10-16T04:46:34;11.60;99.90
48488;DHT22;34289;48.572;13.378;2022-10-16T04:49:00;11.50;99.90
48488;DHT22;34289;48.572;13.378;2022-10-16T04:51:25;11.50;99.90
48488;DHT22;34289;48.572;13.378;2022-10-16T04:53:53;11.50;99.90
48488;DHT22;34289;48.572;13.378;2022-10-16T04:56:19;11.70;99.90
48488;DHT22;34289;48.572;13.378;2022-10-16T04:58:46;11.60;99.90
48488;DHT22;34289;48.572;13.378;2022-10-16T05:01:11;11.60;99.90
48488;DHT22;34289;48.572;13.378;2022-10-16T05:03:37;13.20;99.90
48488;DHT22;34289;48.572;13.378;2022-10-16T05:06:05;11.70;99.90
48488;DHT22;34289;48.572;13.378;2022-10-16T05:08:31;12.80;99.90
48488;DHT22;34289;48.572;13.378;2022-10-16T05:10:56;11.70;99.90
48488;DHT22;34289;48.572;13.378;2022-10-16T05:13:25;11.60;99.90
48488;DHT22;34289;48.572;13.378;2022-10-16T05:15:51;11.60;99.90
48488;DHT22;34289;48.572;13.378;2022-10-16T05:18:17;11.60;99.90
48488;DHT22;34289;48.572;13.378;2022-10-16T05:20:42;11.50;99.90
48488;DHT22;34289;48.572;13.378;2022-10-16T05:23:08;11.50;99.90
48488;DHT22;34289;48.572;13.378;2022-10-16T05:25:36;12.20;99.90
48488;DHT22;34289;48.572;13.378;2022-10-16T05:28:01;11.50;99.90
48488;DHT22;34289;48.572;13.378;2022-10-16T05:30:27;11.50;99.90
48488;DHT22;34289;48.572;13.378;2022-10-16T05:32:53;12.70;99.90
48488;DHT22;34289;48.572;13.378;2022-10-16T05:35:19;13.10;99.90
48488;DHT22;34289;48.572;13.378;2022-10-16T05:37:45;9.80;99.90
48488;DHT22;34289;48.572;13.378;2022-10-16T05:40:12;13.00;99.90
48488;DHT22;34289;48.572;13.378;2022-10-16T05:42:38;11.50;99.90
48488;DHT22;34289;48.572;13.378;2022-10-16T05:45:05;12.70;99.90
48488;DHT22;34289;48.572;13.378;2022-10-16T05:47:31;11.50;99.90
48488;DHT22;34289;48.572;13.378;2022-10-16T05:49:57;11.90;99.90
48488;DHT22;34289;48.572;13.378;2022-10-16T05:52:22;12.10;99.90
48488;DHT22;34289;48.572;13.378;2022-10-16T05:54:48;11.50;99.90
48488;DHT22;34289;48.572;13.378;2022-10-16T05:57:14;13.30;99.90
48488;DHT22;34289;48.572;13.378;2022-10-16T05:59:39;11.60;99.90
48488;DHT22;34289;48.572;13.378;2022-10-16T06:02:05;11.80;99.90
48488;DHT22;34289;48.572;13.378;2022-10-16T06:04:31;11.60;99.90
48488;DHT22;34289;48.572;13.378;2022-10-16T06:06:59;11.60;99.90
48488;DHT22;34289;48.572;13.378;2022-10-16T06:09:27;13.40;99.90
48488;DHT22;34289;48.572;13.378;2022-10-16T06:11:52;13.30;99.90
48488;DHT22;34289;48.572;13.378;2022-10-16T06:14:18;11.70;99.90
48488;DHT22;34289;48.572;13.378;2022-10-16T06:16:44;11.80;99.90
48488;DHT22;34289;48.572;13.378;2022-10-16T06:19:09;11.70;99.90
48488;DHT22;34289;48.572;13.378;2022-10-16T06:21:35;11.80;99.90
48488;DHT22;34289;48.572;13.378;2022-10-16T06:24:01;13.10;99.90
48488;DHT22;34289;48.572;13.378;2022-10-16T06:26:29;12.80;99.90
48488;DHT22;34289;48.572;13.378;2022-10-16T06:28:56;12.80;99.90
48488;DHT22;34289;48.572;13.378;2022-10-16T06:31:23;12.10;99.90
48488;DHT22;34289;48.572;13.378;2022-10-16T06:33:52;13.00;99.90
48488;DHT22;34289;48.572;13.378;2022-10-16T06:36:18;12.30;99.90
48488;DHT22;34289;48.572;13.378;2022-10-16T06:38:44;13.70;99.90
48488;DHT22;34289;48.572;13.378;2022-10-16T06:41:13;12.90;99.90
48488;DHT22;34289;48.572;13.378;2022-10-16T06:43:39;12.50;99.90
48488;DHT22;34289;48.572;13.378;2022-10-16T06:46:06;14.20;99.90
48488;DHT22;34289;48.572;13.378;2022-10-16T06:48:36;13.00;99.90
48488;DHT22;34289;48.572;13.378;2022-10-16T06:51:10;12.70;99.90
48488;DHT22;34289;48.572;13.378;2022-10-16T06:53:37;12.70;99.90
48488;DHT22;34289;48.572;13.378;2022-10-16T06:56:12;14.40;99.90
48488;DHT22;34289;48.572;13.378;2022-10-16T06:58:38;12.70;99.90
48488;DHT22;34289;48.572;13.378;2022-10-16T07:01:05;14.20;99.90
48488;DHT22;34289;48.572;13.378;2022-10-16T07:03:31;12.70;99.90
48488;DHT22;34289;48.572;13.378;2022-10-16T07:05:56;12.70;99.90
48488;DHT22;34289;48.572;13.378;2022-10-16T07:08:22;13.80;99.90
48488;DHT22;34289;48.572;13.378;2022-10-16T07:10:48;12.70;99.90
48488;DHT22;34289;48.572;13.378;2022-10-16T07:13:14;14.20;99.90
48488;DHT22;34289;48.572;13.378;2022-10-16T07:15:40;12.70;99.90
48488;DHT22;34289;48.572;13.378;2022-10-16T07:18:06;12.80;99.90
48488;DHT22;34289;48.572;13.378;2022-10-16T07:20:32;12.90;99.90
48488;DHT22;34289;48.572;13.378;2022-10-16T07:22:58;12.90;99.90
48488;DHT22;34289;48.572;13.378;2022-10-16T07:25:24;13.00;99.90
48488;DHT22;34289;48.572;13.378;2022-10-16T07:27:49;13.20;99.90
48488;DHT22;34289;48.572;13.378;2022-10-16T07:30:15;14.10;99.90
48488;DHT22;34289;48.572;13.378;2022-10-16T07:32:41;13.60;99.90
48488;DHT22;34289;48.572;13.378;2022-10-16T07:35:07;13.60;99.90
48488;DHT22;34289;48.572;13.378;2022-10-16T07:37:32;13.60;99.90
48488;DHT22;34289;48.572;13.378;2022-10-16T07:39:58;13.60;99.90
48488;DHT22;34289;48.572;13.378;2022-10-16T07:42:24;13.50;99.90
48488;DHT22;34289;48.572;13.378;2022-10-16T07:44:49;13.40;99.90
48488;DHT22;34289;48.572;13.378;2022-10-16T07:47:15;13.40;99.90
48488;DHT22;34289;48.572;13.378;2022-10-16T07:49:41;14.90;99.90
48488;DHT22;34289;48.572;13.378;2022-10-16T07:52:06;13.30;99.90
48488;DHT22;34289;48.572;13.378;2022-10-16T07:54:32;13.40;99.90
48488;DHT22;34289;48.572;13.378;2022-10-16T07:56:58;13.40;99.90
48488;DHT22;34289;48.572;13.378;2022-10-16T07:59:23;13.50;99.90
48488;DHT22;34289;48.572;13.378;2022-10-16T08:01:49;13.50;99.90
48488;DHT22;34289;48.572;13.378;2022-10-16T08:04:15;13.70;99.90
48488;DHT22;34289;48.572;13.378;2022-10-16T08:06:44;13.80;99.90
48488;DHT22;34289;48.572;13.378;2022-10-16T08:09:09;14.20;99.90
48488;DHT22;34289;48.572;13.378;2022-10-16T08:11:35;15.90;99.90
48488;DHT22;34289;48.572;13.378;2022-10-16T08:14:01;14.90;99.90
48488;DHT22;34289;48.572;13.378;2022-10-16T08:16:26;15.10;99.90
48488;DHT22;34289;48.572;13.378;2022-10-16T08:18:52;15.20;99.90
48488;DHT22;34289;48.572;13.378;2022-10-16T08:21:20;16.70;99.90
48488;DHT22;34289;48.572;13.378;2022-10-16T08:23:46;15.50;99.90
48488;DHT22;34289;48.572;13.378;2022-10-16T08:26:12;15.60;99.90
48488;DHT22;34289;48.572;13.378;2022-10-16T08:28:38;15.80;99.90
48488;DHT22;34289;48.572;13.378;2022-10-16T08:31:09;15.90;99.90
48488;DHT22;34289;48.572;13.378;2022-10-16T08:33:35;16.00;99.90
48488;DHT22;34289;48.572;13.378;2022-10-16T08:36:01;16.00;99.90
48488;DHT22;34289;48.572;13.378;2022-10-16T08:38:27;16.10;99.90
48488;DHT22;34289;48.572;13.378;2022-10-16T08:41:02;16.20;99.90
48488;DHT22;34289;48.572;13.378;2022-10-16T08:49:19;16.50;99.90
48488;DHT22;34289;48.572;13.378;2022-10-16T08:51:45;16.40;99.90
48488;DHT22;34289;48.572;13.378;2022-10-16T08:54:33;16.20;99.90
48488;DHT22;34289;48.572;13.378;2022-10-16T08:57:16;16.20;99.90
48488;DHT22;34289;48.572;13.378;2022-10-16T08:59:42;16.20;99.90
48488;DHT22;34289;48.572;13.378;2022-10-16T09:02:45;16.30;99.90
48488;DHT22;34289;48.572;13.378;2022-10-16T09:13:47;16.70;99.90
48488;DHT22;34289;48.572;13.378;2022-10-16T09:18:58;16.70;99.90
48488;DHT22;34289;48.572;13.378;2022-10-16T09:21:31;16.60;99.90
48488;DHT22;34289;48.572;13.378;2022-10-16T09:24:19;16.50;99.90
48488;DHT22;34289;48.572;13.378;2022-10-16T09:26:46;16.60;99.90
48488;DHT22;34289;48.572;13.378;2022-10-16T09:29:13;16.50;99.90
48488;DHT22;34289;48.572;13.378;2022-10-16T09:31:39;16.50;99.90
48488;DHT22;34289;48.572;13.378;2022-10-16T09:34:08;16.70;99.90
48488;DHT22;34289;48.572;13.378;2022-10-16T09:36:42;16.90;99.90
48488;DHT22;34289;48.572;13.378;2022-10-16T09:39:10;17.00;99.90
48488;DHT22;34289;48.572;13.378;2022-10-16T09:41:43;17.20;99.90
48488;DHT22;34289;48.572;13.378;2022-10-16T09:44:23;17.30;99.90
48488;DHT22;34289;48.572;13.378;2022-10-16T09:47:04;17.30;99.90
48488;DHT22;34289;48.572;13.378;2022-10-16T09:49:31;17.70;99.90
48488;DHT22;34289;48.572;13.378;2022-10-16T09:52:14;17.80;99.90
48488;DHT22;34289;48.572;13.378;2022-10-16T09:54:51;17.90;99.90
48488;DHT22;34289;48.572;13.378;2022-10-16T09:57:21;18.10;99.90
48488;DHT22;34289;48.572;13.378;2022-10-16T10:02:19;18.40;99.90
48488;DHT22;34289;48.572;13.378;2022-10-16T10:04:56;18.50;99.90
48488;DHT22;34289;48.572;13.378;2022-10-16T10:07:32;18.60;99.90
48488;DHT22;34289;48.572;13.378;2022-10-16T10:10:01;18.60;99.90
48488;DHT22;34289;48.572;13.378;2022-10-16T10:12:31;18.80;99.90
48488;DHT22;34289;48.572;13.378;2022-10-16T10:15:04;18.90;99.90
48488;DHT22;34289;48.572;13.378;2022-10-16T10:17:31;18.90;99.90
48488;DHT22;34289;48.572;13.378;2022-10-16T10:36:07;19.80;99.90
48488;DHT22;34289;48.572;13.378;2022-10-16T10:44:16;20.20;99.90
48488;DHT22;34289;48.572;13.378;2022-10-16T10:49:48;20.40;99.90
48488;DHT22;34289;48.572;13.378;2022-10-16T10:55:10;20.20;99.90
48488;DHT22;34289;48.572;13.378;2022-10-16T11:32:28;22.10;99.90
48488;DHT22;34289;48.572;13.378;2022-10-16T11:35:42;21.90;99.90
48488;DHT22;34289;48.572;13.378;2022-10-16T11:41:42;22.70;99.90
48488;DHT22;34289;48.572;13.378;2022-10-16T11:49:45;22.50;99.90
48488;DHT22;34289;48.572;13.378;2022-10-16T11:52:39;22.40;99.90
48488;DHT22;34289;48.572;13.378;2022-10-16T11:55:14;22.40;99.90
48488;DHT22;34289;48.572;13.378;2022-10-16T11:57:50;22.50;99.90
48488;DHT22;34289;48.572;13.378;2022-10-16T12:00:28;22.60;99.90
48488;DHT22;34289;48.572;13.378;2022-10-16T12:08:28;23.30;99.90
48488;DHT22;34289;48.572;13.378;2022-10-16T12:11:20;23.40;99.90
48488;DHT22;34289;48.572;13.378;2022-10-16T12:13:47;23.30;99.90
48488;DHT22;34289;48.572;13.378;2022-10-16T12:18:44;23.60;99.90
48488;DHT22;34289;48.572;13.378;2022-10-16T12:21:12;23.70;99.90
48488;DHT22;34289;48.572;13.378;2022-10-16T12:23:52;23.80;99.90
48488;DHT22;34289;48.572;13.378;2022-10-16T12:26:26;24.00;99.90
48488;DHT22;34289;48.572;13.378;2022-10-16T12:28:53;24.30;99.90
48488;DHT22;34289;48.572;13.378;2022-10-16T12:31:20;24.40;99.90
48488;DHT22;34289;48.572;13.378;2022-10-16T12:34:01;24.60;99.90
48488;DHT22;34289;48.572;13.378;2022-10-16T12:36:30;24.80;99.90
48488;DHT22;34289;48.572;13.378;2022-10-16T12:38:56;24.80;99.90
48488;DHT22;34289;48.572;13.378;2022-10-16T12:41:29;25.00;99.90
48488;DHT22;34289;48.572;13.378;2022-10-16T12:43:55;25.00;99.90
48488;DHT22;34289;48.572;13.378;2022-10-16T12:46:37;25.10;99.90
48488;DHT22;34289;48.572;13.378;2022-10-16T12:49:37;25.10;99.90
48488;DHT22;34289;48.572;13.378;2022-10-16T12:52:04;25.30;99.90
48488;DHT22;34289;48.572;13.378;2022-10-16T12:54:34;25.50;99.90
48488;DHT22;34289;48.572;13.378;2022-10-16T13:04:57;25.90;99.90
48488;DHT22;34289;48.572;13.378;2022-10-16T13:10:40;25.90;99.90
48488;DHT22;34289;48.572;13.378;2022-10-16T13:13:32;25.90;99.90
48488;DHT22;34289;48.572;13.378;2022-10-16T13:16:22;26.20;99.90
48488;DHT22;34289;48.572;13.378;2022-10-16T13:27:41;27.20;99.90
48488;DHT22;34289;48.572;13.378;2022-10-16T13:30:30;26.00;99.90
48488;DHT22;34289;48.572;13.378;2022-10-16T13:40:36;25.80;99.90
48488;DHT22;34289;48.572;13.378;2022-10-16T13:46:24;25.50;99.90
48488;DHT22;34289;48.572;13.378;2022-10-16T13:48:58;25.00;99.90
48488;DHT22;34289;48.572;13.378;2022-10-16T13:51:31;24.90;99.90
48488;DHT22;34289;48.572;13.378;2022-10-16T13:53:58;25.20;99.90
48488;DHT22;34289;48.572;13.378;2022-10-16T13:56:32;25.60;99.90
48488;DHT22;34289;48.572;13.378;2022-10-16T13:59:03;26.30;99.90
48488;DHT22;34289;48.572;13.378;2022-10-16T14:01:35;26.60;99.90
48488;DHT22;34289;48.572;13.378;2022-10-16T14:04:07;26.50;99.90
48488;DHT22;34289;48.572;13.378;2022-10-16T14:06:35;26.50;99.90
48488;DHT22;34289;48.572;13.378;2022-10-16T14:09:21;26.50;99.90
48488;DHT22;34289;48.572;13.378;2022-10-16T14:11:59;26.20;99.90
48488;DHT22;34289;48.572;13.378;2022-10-16T14:14:29;25.90;99.90
48488;DHT22;34289;48.572;13.378;2022-10-16T14:16:56;25.60;99.90
48488;DHT22;34289;48.572;13.378;2022-10-16T14:19:25;26.10;99.90
48488;DHT22;34289;48.572;13.378;2022-10-16T14:21:53;26.60;99.90
48488;DHT22;34289;48.572;13.378;2022-10-16T14:24:33;26.70;99.90
48488;DHT22;34289;48.572;13.378;2022-10-16T14:26:59;26.30;99.90
48488;DHT22;34289;48.572;13.378;2022-10-16T14:29:27;25.80;99.90
48488;DHT22;34289;48.572;13.378;2022-10-16T14:32:00;26.50;99.90
48488;DHT22;34289;48.572;13.378;2022-10-16T14:37:24;29.60;99.90
48488;DHT22;34289;48.572;13.378;2022-10-16T14:39:52;30.40;99.90
48488;DHT22;34289;48.572;13.378;2022-10-16T14:42:21;29.10;99.90
48488;DHT22;34289;48.572;13.378;2022-10-16T14:44:50;27.00;99.90
48488;DHT22;34289;48.572;13.378;2022-10-16T14:47:22;25.40;99.90
48488;DHT22;34289;48.572;13.378;2022-10-16T14:49:54;24.40;99.90
48488;DHT22;34289;48.572;13.378;2022-10-16T14:52:21;23.70;99.90
48488;DHT22;34289;48.572;13.378;2022-10-16T14:54:50;23.20;99.90
48488;DHT22;34289;48.572;13.378;2022-10-16T14:57:23;22.70;99.90
48488;DHT22;34289;48.572;13.378;2022-10-16T14:59:49;22.30;99.90
48488;DHT22;34289;48.572;13.378;2022-10-16T15:02:25;21.80;99.90
48488;DHT22;34289;48.572;13.378;2022-10-16T15:04:52;21.50;99.90
48488;DHT22;34289;48.572;13.378;2022-10-16T15:07:18;21.40;99.90
48488;DHT22;34289;48.572;13.378;2022-10-16T15:09:44;21.10;99.90
48488;DHT22;34289;48.572;13.378;2022-10-16T15:12:09;20.70;99.90
48488;DHT22;34289;48.572;13.378;2022-10-16T15:14:35;20.20;99.90
48488;DHT22;34289;48.572;13.378;2022-10-16T15:17:02;20.00;99.90
48488;DHT22;34289;48.572;13.378;2022-10-16T15:19:27;20.00;99.90
48488;DHT22;34289;48.572;13.378;2022-10-16T15:21:53;19.90;99.90
48488;DHT22;34289;48.572;13.378;2022-10-16T15:24:18;19.90;99.90
48488;DHT22;34289;48.572;13.378;2022-10-16T15:26:44;19.90;99.90
48488;DHT22;34289;48.572;13.378;2022-10-16T15:29:12;19.90;99.90
48488;DHT22;34289;48.572;13.378;2022-10-16T15:31:38;19.90;99.90
48488;DHT22;34289;48.572;13.378;2022-10-16T15:34:04;19.90;99.90
48488;DHT22;34289;48.572;13.378;2022-10-16T15:36:35;19.90;99.90
48488;DHT22;34289;48.572;13.378;2022-10-16T15:39:16;19.80;99.90
48488;DHT22;34289;48.572;13.378;2022-10-16T15:41:44;19.70;99.90
48488;DHT22;34289;48.572;13.378;2022-10-16T15:44:10;19.60;99.90
48488;DHT22;34289;48.572;13.378;2022-10-16T15:46:36;19.50;99.90
48488;DHT22;34289;48.572;13.378;2022-10-16T15:49:02;19.30;99.90
48488;DHT22;34289;48.572;13.378;2022-10-16T15:51:28;19.20;99.90
48488;DHT22;34289;48.572;13.378;2022-10-16T15:53:56;19.10;99.90
48488;DHT22;34289;48.572;13.378;2022-10-16T15:56:23;19.00;99.90
48488;DHT22;34289;48.572;13.378;2022-10-16T15:58:54;19.00;99.90
48488;DHT22;34289;48.572;13.378;2022-10-16T16:01:20;18.70;99.90
48488;DHT22;34289;48.572;13.378;2022-10-16T16:03:46;18.50;99.90
48488;DHT22;34289;48.572;13.378;2022-10-16T16:06:13;18.30;99.90
48488;DHT22;34289;48.572;13.378;2022-10-16T16:08:39;18.10;99.90
48488;DHT22;34289;48.572;13.378;2022-10-16T16:11:10;18.00;99.90
48488;DHT22;34289;48.572;13.378;2022-10-16T16:13:36;17.80;99.90
48488;DHT22;34289;48.572;13.378;2022-10-16T16:16:06;17.80;99.90
48488;DHT22;34289;48.572;13.378;2022-10-16T16:18:32;17.70;99.90
48488;DHT22;34289;48.572;13.378;2022-10-16T16:20:58;17.50;99.90
48488;DHT22;34289;48.572;13.378;2022-10-16T16:23:24;17.40;99.90
48488;DHT22;34289;48.572;13.378;2022-10-16T16:26:06;17.20;99.90
48488;DHT22;34289;48.572;13.378;2022-10-16T16:28:33;17.00;99.90
48488;DHT22;34289;48.572;13.378;2022-10-16T16:30:59;17.00;99.90
48488;DHT22;34289;48.572;13.378;2022-10-16T16:33:24;16.90;99.90
48488;DHT22;34289;48.572;13.378;2022-10-16T16:35:50;16.70;99.90
48488;DHT22;34289;48.572;13.378;2022-10-16T16:38:15;16.70;99.90
48488;DHT22;34289;48.572;13.378;2022-10-16T16:40:41;16.60;99.90
48488;DHT22;34289;48.572;13.378;2022-10-16T16:43:07;16.40;99.90
48488;DHT22;34289;48.572;13.378;2022-10-16T16:45:36;16.30;99.90
48488;DHT22;34289;48.572;13.378;2022-10-16T16:48:06;16.20;99.90
48488;DHT22;34289;48.572;13.378;2022-10-16T16:50:36;16.20;99.90
48488;DHT22;34289;48.572;13.378;2022-10-16T16:53:03;16.10;99.90
48488;DHT22;34289;48.572;13.378;2022-10-16T16:55:28;16.00;99.90
48488;DHT22;34289;48.572;13.378;2022-10-16T16:57:54;16.00;99.90
48488;DHT22;34289;48.572;13.378;2022-10-16T17:00:22;16.00;99.90
48488;DHT22;34289;48.572;13.378;2022-10-16T17:02:49;15.90;99.90
48488;DHT22;34289;48.572;13.378;2022-10-16T17:05:15;15.80;99.90
48488;DHT22;34289;48.572;13.378;2022-10-16T17:07:41;15.60;99.90
48488;DHT22;34289;48.572;13.378;2022-10-16T17:10:07;15.60;99.90
48488;DHT22;34289;48.572;13.378;2022-10-16T17:12:33;15.50;99.90
48488;DHT22;34289;48.572;13.378;2022-10-16T17:14:59;15.40;99.90
48488;DHT22;34289;48.572;13.378;2022-10-16T17:17:25;15.30;99.90
48488;DHT22;34289;48.572;13.378;2022-10-16T17:19:51;15.30;99.90
48488;DHT22;34289;48.572;13.378;2022-10-16T17:22:17;15.20;99.90
48488;DHT22;34289;48.572;13.378;2022-10-16T17:24:43;15.20;99.90
48488;DHT22;34289;48.572;13.378;2022-10-16T17:27:09;14.90;99.90
48488;DHT22;34289;48.572;13.378;2022-10-16T17:29:37;15.00;99.90
48488;DHT22;34289;48.572;13.378;2022-10-16T17:32:03;15.00;99.90
48488;DHT22;34289;48.572;13.378;2022-10-16T17:34:28;14.80;99.90
48488;DHT22;34289;48.572;13.378;2022-10-16T17:36:54;14.80;99.90
48488;DHT22;34289;48.572;13.378;2022-10-16T17:39:22;14.70;99.90
48488;DHT22;34289;48.572;13.378;2022-10-16T17:41:48;14.60;99.90
48488;DHT22;34289;48.572;13.378;2022-10-16T17:44:15;14.50;99.90
48488;DHT22;34289;48.572;13.378;2022-10-16T17:46:51;14.40;99.90
48488;DHT22;34289;48.572;13.378;2022-10-16T17:49:17;14.30;99.90
48488;DHT22;34289;48.572;13.378;2022-10-16T17:51:43;14.30;99.90